sensor_id;sensor_type;location;lat;lon;timestamp;pressure;altitude;pressure_sealevel;temperature;humidity
6387;BME280;3226;42.162;24.756;2022-08-21T00:01:53;99006.88;;;19.90;100.00
6387;BME280;3226;42.162;24.756;2022-08-21T00:04:22;99021.78;;;19.91;100.00
6387;BME280;3226;42.162;24.756;2022-08-21T00:06:55;99028.72;;;19.92;100.00
6387;BME280;3226;42.162;24.756;2022-08-21T00:09:24;99031.59;;;19.98;100.00
6387;BME280;3226;42.162;24.756;2022-08-21T00:11:52;99035.28;;;19.97;100.00
6387;BME280;3226;42.162;24.756;2022-08-21T00:14:20;99025.47;;;19.97;100.00
6387;BME280;3226;42.162;24.756;2022-08-21T00:16:49;99011.38;;;20.17;100.00
6387;BME280;3226;42.162;24.756;2022-08-21T00:19:20;99004.81;;;20.13;100.00
6387;BME280;3226;42.162;24.756;2022-08-21T00:21:51;99014.44;;;20.20;100.00
6387;BME280;3226;42.162;24.756;2022-08-21T00:24:20;99008.31;;;20.13;100.00
6387;BME280;3226;42.162;24.756;2022-08-21T00:26:49;99013.00;;;20.11;100.00
6387;BME280;3226;42.162;24.756;2022-08-21T00:29:18;99015.66;;;20.11;100.00
6387;BME280;3226;42.162;24.756;2022-08-21T00:31:46;98999.72;;;20.11;100.00
6387;BME280;3226;42.162;24.756;2022-08-21T00:34:18;98996.25;;;20.04;100.00
6387;BME280;3226;42.162;24.756;2022-08-21T00:36:46;98997.69;;;20.13;100.00
6387;BME280;3226;42.162;24.756;2022-08-21T00:39:14;99003.00;;;20.13;100.00
6387;BME280;3226;42.162;24.756;2022-08-21T00:41:43;99002.97;;;20.06;100.00
6387;BME280;3226;42.162;24.756;2022-08-21T00:44:13;98997.47;;;19.94;100.00
6387;BME280;3226;42.162;24.756;2022-08-21T00:46:42;98989.06;;;19.84;100.00
6387;BME280;3226;42.162;24.756;2022-08-21T00:49:11;98969.03;;;19.88;100.00
6387;BME280;3226;42.162;24.756;2022-08-21T00:51:44;98971.94;;;20.07;100.00
6387;BME280;3226;42.162;24.756;2022-08-21T00:54:14;98974.16;;;20.17;100.00
6387;BME280;3226;42.162;24.756;2022-08-21T00:56:46;98987.84;;;20.14;100.00
6387;BME280;3226;42.162;24.756;2022-08-21T00:59:18;98990.31;;;20.15;100.00
6387;BME280;3226;42.162;24.756;2022-08-21T01:01:47;98995.63;;;20.15;100.00
6387;BME280;3226;42.162;24.756;2022-08-21T01:04:15;98980.28;;;19.90;100.00
6387;BME280;3226;42.162;24.756;2022-08-21T01:06:45;98990.72;;;20.12;100.00
6387;BME280;3226;42.162;24.756;2022-08-21T01:09:13;98990.31;;;20.02;100.00
6387;BME280;3226;42.162;24.756;2022-08-21T01:11:42;98989.91;;;19.98;100.00
6387;BME280;3226;42.162;24.756;2022-08-21T01:14:10;98979.25;;;20.12;100.00
6387;BME280;3226;42.162;24.756;2022-08-21T01:16:40;98957.84;;;20.00;100.00
6387;BME280;3226;42.162;24.756;2022-08-21T01:19:11;98951.06;;;20.04;100.00
6387;BME280;3226;42.162;24.756;2022-08-21T01:21:42;98950.84;;;20.12;100.00
6387;BME280;3226;42.162;24.756;2022-08-21T01:24:11;98959.03;;;20.11;100.00
6387;BME280;3226;42.162;24.756;2022-08-21T01:26:40;98945.72;;;20.24;100.00
6387;BME280;3226;42.162;24.756;2022-08-21T01:29:14;98941.41;;;20.36;100.00
6387;BME280;3226;42.162;24.756;2022-08-21T01:31:44;98946.72;;;20.30;100.00
6387;BME280;3226;42.162;24.756;2022-08-21T01:34:13;98937.47;;;20.46;100.00
6387;BME280;3226;42.162;24.756;2022-08-21T01:36:44;98938.69;;;20.57;100.00
6387;BME280;3226;42.162;24.756;2022-08-21T01:39:14;98931.19;;;20.40;100.00
6387;BME280;3226;42.162;24.756;2022-08-21T01:41:42;98939.53;;;20.44;100.00
6387;BME280;3226;42.162;24.756;2022-08-21T01:44:11;98941.41;;;20.43;99.53
6387;BME280;3226;42.162;24.756;2022-08-21T01:46:39;98946.53;;;20.38;96.92
6387;BME280;3226;42.162;24.756;2022-08-21T01:49:07;98943.03;;;20.44;96.89
6387;BME280;3226;42.162;24.756;2022-08-21T01:51:36;98949.97;;;20.39;96.42
6387;BME280;3226;42.162;24.756;2022-08-21T01:54:05;98956.94;;;20.46;94.93
6387;BME280;3226;42.162;24.756;2022-08-21T01:56:36;98969.41;;;20.46;94.44
6387;BME280;3226;42.162;24.756;2022-08-21T01:59:05;98984.97;;;20.42;94.36
6387;BME280;3226;42.162;24.756;2022-08-21T02:01:33;99007.06;;;20.36;95.40
6387;BME280;3226;42.162;24.756;2022-08-21T02:04:02;99026.06;;;20.33;95.66
6387;BME280;3226;42.162;24.756;2022-08-21T02:06:30;99041.00;;;20.00;99.15
6387;BME280;3226;42.162;24.756;2022-08-21T02:08:58;99037.53;;;20.00;100.00
6387;BME280;3226;42.162;24.756;2022-08-21T02:11:28;99045.50;;;20.13;99.70
6387;BME280;3226;42.162;24.756;2022-08-21T02:13:56;99038.56;;;20.05;100.00
6387;BME280;3226;42.162;24.756;2022-08-21T02:16:24;99030.34;;;19.87;100.00
6387;BME280;3226;42.162;24.756;2022-08-21T02:18:52;99020.94;;;19.84;100.00
6387;BME280;3226;42.162;24.756;2022-08-21T02:21:20;99025.41;;;19.63;100.00
6387;BME280;3226;42.162;24.756;2022-08-21T02:23:48;99019.91;;;19.72;100.00
6387;BME280;3226;42.162;24.756;2022-08-21T02:26:16;99027.25;;;19.83;100.00
6387;BME280;3226;42.162;24.756;2022-08-21T02:28:45;99032.63;;;20.03;98.89
6387;BME280;3226;42.162;24.756;2022-08-21T02:31:14;99037.94;;;19.97;100.00
6387;BME280;3226;42.162;24.756;2022-08-21T02:33:42;99048.56;;;20.03;100.00
6387;BME280;3226;42.162;24.756;2022-08-21T02:36:11;99051.84;;;19.92;100.00
6387;BME280;3226;42.162;24.756;2022-08-21T02:38:41;99051.25;;;20.10;100.00
6387;BME280;3226;42.162;24.756;2022-08-21T02:41:11;99057.38;;;20.24;100.00
6387;BME280;3226;42.162;24.756;2022-08-21T02:43:40;99062.06;;;20.29;100.00
6387;BME280;3226;42.162;24.756;2022-08-21T02:46:11;99059.41;;;20.29;100.00
6387;BME280;3226;42.162;24.756;2022-08-21T02:48:40;99058.81;;;20.40;100.00
6387;BME280;3226;42.162;24.756;2022-08-21T02:51:10;99053.50;;;20.13;100.00
6387;BME280;3226;42.162;24.756;2022-08-21T02:53:39;99057.34;;;20.11;100.00
6387;BME280;3226;42.162;24.756;2022-08-21T02:56:09;99043.88;;;19.92;100.00
6387;BME280;3226;42.162;24.756;2022-08-21T02:58:42;99055.69;;;19.83;100.00
6387;BME280;3226;42.162;24.756;2022-08-21T03:01:12;99041.78;;;19.74;100.00
6387;BME280;3226;42.162;24.756;2022-08-21T03:03:44;99043.81;;;19.72;100.00
6387;BME280;3226;42.162;24.756;2022-08-21T03:06:14;99045.03;;;19.69;100.00
6387;BME280;3226;42.162;24.756;2022-08-21T03:08:43;99043.00;;;19.78;100.00
6387;BME280;3226;42.162;24.756;2022-08-21T03:11:12;99033.19;;;19.72;100.00
6387;BME280;3226;42.162;24.756;2022-08-21T03:13:41;99044.63;;;19.65;100.00
6387;BME280;3226;42.162;24.756;2022-08-21T03:16:11;99048.28;;;19.64;100.00
6387;BME280;3226;42.162;24.756;2022-08-21T03:18:40;99046.66;;;19.70;100.00
6387;BME280;3226;42.162;24.756;2022-08-21T03:21:08;99065.47;;;19.82;100.00
6387;BME280;3226;42.162;24.756;2022-08-21T03:23:37;99060.63;;;19.99;100.00
6387;BME280;3226;42.162;24.756;2022-08-21T03:26:07;99046.88;;;19.82;100.00
6387;BME280;3226;42.162;24.756;2022-08-21T03:28:36;99053.00;;;19.62;100.00
6387;BME280;3226;42.162;24.756;2022-08-21T03:31:04;99038.88;;;19.62;100.00
6387;BME280;3226;42.162;24.756;2022-08-21T03:33:34;99045.03;;;19.69;100.00
6387;BME280;3226;42.162;24.756;2022-08-21T03:36:05;99041.97;;;19.79;100.00
6387;BME280;3226;42.162;24.756;2022-08-21T03:38:37;99047.91;;;19.81;100.00
6387;BME280;3226;42.162;24.756;2022-08-21T03:41:06;99052.03;;;19.90;100.00
6387;BME280;3226;42.162;24.756;2022-08-21T03:43:35;99034.47;;;19.96;100.00
6387;BME280;3226;42.162;24.756;2022-08-21T03:46:05;99059.00;;;20.05;100.00
6387;BME280;3226;42.162;24.756;2022-08-21T03:48:36;99056.75;;;20.02;100.00
6387;BME280;3226;42.162;24.756;2022-08-21T03:51:05;99060.78;;;19.84;100.00
6387;BME280;3226;42.162;24.756;2022-08-21T03:53:34;99030.09;;;19.61;100.00
6387;BME280;3226;42.162;24.756;2022-08-21T03:56:03;99061.00;;;19.89;100.00
6387;BME280;3226;42.162;24.756;2022-08-21T03:58:32;99066.13;;;19.98;100.00
6387;BME280;3226;42.162;24.756;2022-08-21T04:01:02;99068.19;;;19.96;100.00
6387;BME280;3226;42.162;24.756;2022-08-21T04:03:31;99063.09;;;20.01;100.00
6387;BME280;3226;42.162;24.756;2022-08-21T04:06:01;99060.19;;;19.96;100.00
6387;BME280;3226;42.162;24.756;2022-08-21T04:08:29;99059.56;;;19.80;100.00
6387;BME280;3226;42.162;24.756;2022-08-21T04:10:58;99065.88;;;19.79;100.00
6387;BME280;3226;42.162;24.756;2022-08-21T04:13:26;99069.03;;;20.03;100.00
6387;BME280;3226;42.162;24.756;2022-08-21T04:15:56;99075.13;;;19.97;100.00
6387;BME280;3226;42.162;24.756;2022-08-21T04:18:24;99069.38;;;19.86;100.00
6387;BME280;3226;42.162;24.756;2022-08-21T04:20:53;99076.97;;;19.96;100.00
6387;BME280;3226;42.162;24.756;2022-08-21T04:23:23;99060.38;;;19.81;100.00
6387;BME280;3226;42.162;24.756;2022-08-21T04:25:52;99068.97;;;19.83;100.00
6387;BME280;3226;42.162;24.756;2022-08-21T04:28:20;99071.63;;;19.89;100.00
6387;BME280;3226;42.162;24.756;2022-08-21T04:30:55;99073.03;;;19.85;100.00
6387;BME280;3226;42.162;24.756;2022-08-21T04:33:23;99071.25;;;19.92;100.00
6387;BME280;3226;42.162;24.756;2022-08-21T04:35:51;99075.75;;;20.05;100.00
6387;BME280;3226;42.162;24.756;2022-08-21T04:38:20;99054.09;;;19.95;100.00
6387;BME280;3226;42.162;24.756;2022-08-21T04:40:50;99067.31;;;19.88;100.00
6387;BME280;3226;42.162;24.756;2022-08-21T04:43:19;99049.75;;;19.81;100.00
6387;BME280;3226;42.162;24.756;2022-08-21T04:45:47;99062.63;;;19.77;100.00
6387;BME280;3226;42.162;24.756;2022-08-21T04:48:19;99037.06;;;19.62;100.00
6387;BME280;3226;42.162;24.756;2022-08-21T04:50:50;99057.72;;;19.81;100.00
6387;BME280;3226;42.162;24.756;2022-08-21T04:53:23;99048.72;;;19.88;100.00
6387;BME280;3226;42.162;24.756;2022-08-21T04:55:54;99040.97;;;19.87;100.00
6387;BME280;3226;42.162;24.756;2022-08-21T04:58:25;99039.47;;;19.57;100.00
6387;BME280;3226;42.162;24.756;2022-08-21T05:00:55;99033.53;;;19.42;100.00
6387;BME280;3226;42.162;24.756;2022-08-21T05:03:24;99031.09;;;19.60;100.00
6387;BME280;3226;42.162;24.756;2022-08-21T05:05:52;99016.19;;;19.59;100.00
6387;BME280;3226;42.162;24.756;2022-08-21T05:08:24;99038.91;;;19.75;100.00
6387;BME280;3226;42.162;24.756;2022-08-21T05:10:54;99034.00;;;19.79;100.00
6387;BME280;3226;42.162;24.756;2022-08-21T05:13:26;99041.78;;;19.87;100.00
6387;BME280;3226;42.162;24.756;2022-08-21T05:15:55;99044.66;;;19.92;100.00
6387;BME280;3226;42.162;24.756;2022-08-21T05:18:23;99033.44;;;19.90;100.00
6387;BME280;3226;42.162;24.756;2022-08-21T05:20:51;99030.34;;;19.80;100.00
6387;BME280;3226;42.162;24.756;2022-08-21T05:23:19;99032.38;;;19.78;100.00
6387;BME280;3226;42.162;24.756;2022-08-21T05:25:47;99022.56;;;19.85;100.00
6387;BME280;3226;42.162;24.756;2022-08-21T05:28:17;99016.44;;;19.85;100.00
6387;BME280;3226;42.162;24.756;2022-08-21T05:30:45;99023.63;;;19.98;100.00
6387;BME280;3226;42.162;24.756;2022-08-21T05:33:13;99024.19;;;19.73;100.00
6387;BME280;3226;42.162;24.756;2022-08-21T05:35:42;99017.22;;;19.78;100.00
6387;BME280;3226;42.162;24.756;2022-08-21T05:38:11;99021.78;;;19.91;100.00
6387;BME280;3226;42.162;24.756;2022-08-21T05:40:44;99027.31;;;19.97;100.00
6387;BME280;3226;42.162;24.756;2022-08-21T05:43:12;99024.25;;;19.93;100.00
6387;BME280;3226;42.162;24.756;2022-08-21T05:45:42;99024.25;;;20.06;100.00
6387;BME280;3226;42.162;24.756;2022-08-21T05:48:13;99040.59;;;20.10;100.00
6387;BME280;3226;42.162;24.756;2022-08-21T05:50:42;99037.31;;;20.15;100.00
6387;BME280;3226;42.162;24.756;2022-08-21T05:53:11;99041.63;;;20.09;100.00
6387;BME280;3226;42.162;24.756;2022-08-21T05:55:39;99023.63;;;20.11;100.00
6387;BME280;3226;42.162;24.756;2022-08-21T05:58:11;99036.09;;;20.31;100.00
6387;BME280;3226;42.162;24.756;2022-08-21T06:00:39;99036.69;;;20.46;100.00
6387;BME280;3226;42.162;24.756;2022-08-21T06:03:12;99041.41;;;20.37;100.00
6387;BME280;3226;42.162;24.756;2022-08-21T06:05:41;99048.38;;;20.39;100.00
6387;BME280;3226;42.162;24.756;2022-08-21T06:08:09;99055.94;;;20.42;100.00
6387;BME280;3226;42.162;24.756;2022-08-21T06:10:37;99047.56;;;20.25;100.00
6387;BME280;3226;42.162;24.756;2022-08-21T06:13:05;99057.34;;;20.11;100.00
6387;BME280;3226;42.162;24.756;2022-08-21T06:15:34;99060.03;;;20.17;100.00
6387;BME280;3226;42.162;24.756;2022-08-21T06:18:02;99062.47;;;20.32;100.00
6387;BME280;3226;42.162;24.756;2022-08-21T06:20:32;99047.34;;;20.19;100.00
6387;BME280;3226;42.162;24.756;2022-08-21T06:23:01;99037.31;;;20.21;100.00
6387;BME280;3226;42.162;24.756;2022-08-21T06:25:29;99055.31;;;20.40;100.00
6387;BME280;3226;42.162;24.756;2022-08-21T06:28:02;99061.47;;;20.20;100.00
6387;BME280;3226;42.162;24.756;2022-08-21T06:30:34;99057.38;;;20.17;100.00
6387;BME280;3226;42.162;24.756;2022-08-21T06:33:03;99051.44;;;20.15;100.00
6387;BME280;3226;42.162;24.756;2022-08-21T06:35:34;99043.88;;;20.26;100.00
6387;BME280;3226;42.162;24.756;2022-08-21T06:38:07;99055.53;;;20.25;100.00
6387;BME280;3226;42.162;24.756;2022-08-21T06:40:35;99037.97;;;20.17;100.00
6387;BME280;3226;42.162;24.756;2022-08-21T06:43:14;99034.03;;;20.33;100.00
6387;BME280;3226;42.162;24.756;2022-08-21T06:45:43;99035.47;;;20.29;100.00
6387;BME280;3226;42.162;24.756;2022-08-21T06:48:11;99039.19;;;20.21;100.00
6387;BME280;3226;42.162;24.756;2022-08-21T06:50:47;99046.75;;;20.24;100.00
6387;BME280;3226;42.162;24.756;2022-08-21T06:53:17;99031.59;;;20.45;100.00
6387;BME280;3226;42.162;24.756;2022-08-21T06:55:46;99007.06;;;20.22;100.00
6387;BME280;3226;42.162;24.756;2022-08-21T06:58:15;99025.06;;;20.34;100.00
6387;BME280;3226;42.162;24.756;2022-08-21T07:00:45;99023.22;;;20.28;100.00
6387;BME280;3226;42.162;24.756;2022-08-21T07:03:22;99017.28;;;20.26;100.00
6387;BME280;3226;42.162;24.756;2022-08-21T07:05:52;99032.81;;;20.42;100.00
6387;BME280;3226;42.162;24.756;2022-08-21T07:08:21;99029.94;;;20.57;100.00
6387;BME280;3226;42.162;24.756;2022-08-21T07:10:49;99025.22;;;20.52;100.00
6387;BME280;3226;42.162;24.756;2022-08-21T07:13:17;99025.03;;;20.47;100.00
6387;BME280;3226;42.162;24.756;2022-08-21T07:15:45;99022.56;;;20.52;100.00
6387;BME280;3226;42.162;24.756;2022-08-21T07:18:14;99012.38;;;20.29;100.00
6387;BME280;3226;42.162;24.756;2022-08-21T07:20:42;99011.75;;;20.47;100.00
6387;BME280;3226;42.162;24.756;2022-08-21T07:23:26;99012.72;;;20.66;100.00
6387;BME280;3226;42.162;24.756;2022-08-21T07:25:55;99027.06;;;20.59;97.16
6387;BME280;3226;42.162;24.756;2022-08-21T07:28:23;99029.09;;;20.63;97.15
6387;BME280;3226;42.162;24.756;2022-08-21T07:30:53;99024.56;;;20.77;96.86
6387;BME280;3226;42.162;24.756;2022-08-21T07:33:22;99027.22;;;20.77;97.29
6387;BME280;3226;42.162;24.756;2022-08-21T07:35:50;99009.84;;;20.88;96.48
6387;BME280;3226;42.162;24.756;2022-08-21T07:38:21;99013.50;;;20.94;97.66
6387;BME280;3226;42.162;24.756;2022-08-21T07:40:50;98992.63;;;20.91;97.69
6387;BME280;3226;42.162;24.756;2022-08-21T07:43:19;99008.75;;;21.03;98.84
6387;BME280;3226;42.162;24.756;2022-08-21T07:45:48;99004.47;;;20.95;96.01
6387;BME280;3226;42.162;24.756;2022-08-21T07:48:17;99010.81;;;20.94;96.13
6387;BME280;3226;42.162;24.756;2022-08-21T07:50:45;99005.25;;;21.09;95.41
6387;BME280;3226;42.162;24.756;2022-08-21T07:53:13;99009.38;;;20.98;94.49
6387;BME280;3226;42.162;24.756;2022-08-21T07:55:43;99009.97;;;21.07;94.20
6387;BME280;3226;42.162;24.756;2022-08-21T07:58:11;99018.44;;;20.84;95.00
6387;BME280;3226;42.162;24.756;2022-08-21T08:00:39;99009.97;;;21.00;93.62
6387;BME280;3226;42.162;24.756;2022-08-21T08:03:08;99019.38;;;21.09;94.59
6387;BME280;3226;42.162;24.756;2022-08-21T08:05:36;99024.09;;;21.07;93.47
6387;BME280;3226;42.162;24.756;2022-08-21T08:08:05;99013.81;;;21.18;92.77
6387;BME280;3226;42.162;24.756;2022-08-21T08:10:34;99023.00;;;21.22;95.41
6387;BME280;3226;42.162;24.756;2022-08-21T08:13:03;99015.41;;;21.26;95.11
6387;BME280;3226;42.162;24.756;2022-08-21T08:15:36;99015.00;;;21.22;96.01
6387;BME280;3226;42.162;24.756;2022-08-21T08:18:04;99011.56;;;21.21;95.80
6387;BME280;3226;42.162;24.756;2022-08-21T08:20:33;99004.97;;;21.24;94.46
6387;BME280;3226;42.162;24.756;2022-08-21T08:23:01;99002.03;;;21.39;93.97
6387;BME280;3226;42.162;24.756;2022-08-21T08:25:29;98981.56;;;20.94;92.71
6387;BME280;3226;42.162;24.756;2022-08-21T08:28:04;99001.03;;;20.81;93.99
6387;BME280;3226;42.162;24.756;2022-08-21T08:30:44;99002.06;;;20.73;95.01
6387;BME280;3226;42.162;24.756;2022-08-21T08:33:12;98999.41;;;20.73;94.63
6387;BME280;3226;42.162;24.756;2022-08-21T08:35:41;99004.31;;;20.83;94.56
6387;BME280;3226;42.162;24.756;2022-08-21T08:38:09;99001.84;;;20.88;92.89
6387;BME280;3226;42.162;24.756;2022-08-21T08:40:39;98991.34;;;21.00;92.09
6387;BME280;3226;42.162;24.756;2022-08-21T08:43:12;98990.44;;;21.20;92.01
6387;BME280;3226;42.162;24.756;2022-08-21T08:45:46;98987.63;;;21.15;91.90
6387;BME280;3226;42.162;24.756;2022-08-21T08:48:38;98981.94;;;21.04;91.82
6387;BME280;3226;42.162;24.756;2022-08-21T08:51:13;98988.81;;;21.19;91.66
6387;BME280;3226;42.162;24.756;2022-08-21T08:53:49;98981.69;;;21.13;92.23
6387;BME280;3226;42.162;24.756;2022-08-21T08:56:25;98980.22;;;21.17;90.87
6387;BME280;3226;42.162;24.756;2022-08-21T08:59:00;98979.81;;;21.20;90.65
6387;BME280;3226;42.162;24.756;2022-08-21T09:01:29;98979.09;;;21.38;90.32
6387;BME280;3226;42.162;24.756;2022-08-21T09:04:04;98977.63;;;21.42;88.58
6387;BME280;3226;42.162;24.756;2022-08-21T09:06:40;98961.00;;;21.47;88.55
6387;BME280;3226;42.162;24.756;2022-08-21T09:09:25;98971.78;;;21.59;88.92
6387;BME280;3226;42.162;24.756;2022-08-21T09:12:00;98972.59;;;21.59;87.55
6387;BME280;3226;42.162;24.756;2022-08-21T09:17:16;98970.22;;;21.12;90.93
6387;BME280;3226;42.162;24.756;2022-08-21T09:19:58;98964.91;;;21.44;89.43
6387;BME280;3226;42.162;24.756;2022-08-21T09:22:37;98966.63;;;21.32;89.53
6387;BME280;3226;42.162;24.756;2022-08-21T09:25:12;98961.78;;;21.15;90.97
6387;BME280;3226;42.162;24.756;2022-08-21T09:27:43;98959.72;;;21.17;90.96
6387;BME280;3226;42.162;24.756;2022-08-21T09:30:13;98959.00;;;21.35;91.20
6387;BME280;3226;42.162;24.756;2022-08-21T09:32:41;98952.91;;;21.67;89.76
6387;BME280;3226;42.162;24.756;2022-08-21T09:35:11;98955.28;;;21.43;89.66
6387;BME280;3226;42.162;24.756;2022-08-21T09:37:51;98940.56;;;21.41;87.94
6387;BME280;3226;42.162;24.756;2022-08-21T09:40:31;98948.41;;;21.61;86.85
6387;BME280;3226;42.162;24.756;2022-08-21T09:43:02;98939.81;;;21.59;88.66
6387;BME280;3226;42.162;24.756;2022-08-21T09:45:33;98930.41;;;21.56;88.02
6387;BME280;3226;42.162;24.756;2022-08-21T09:48:13;98934.63;;;21.38;86.62
6387;BME280;3226;42.162;24.756;2022-08-21T09:50:42;98937.53;;;21.30;88.22
6387;BME280;3226;42.162;24.756;2022-08-21T09:53:17;98943.94;;;21.55;87.62
6387;BME280;3226;42.162;24.756;2022-08-21T09:55:51;98940.97;;;21.70;87.21
6387;BME280;3226;42.162;24.756;2022-08-21T09:58:38;98940.50;;;21.47;86.00
6387;BME280;3226;42.162;24.756;2022-08-21T10:01:13;98949.69;;;21.51;86.87
6387;BME280;3226;42.162;24.756;2022-08-21T10:03:42;98956.97;;;21.70;87.24
6387;BME280;3226;42.162;24.756;2022-08-21T10:06:19;98946.53;;;21.93;86.09
6387;BME280;3226;42.162;24.756;2022-08-21T10:08:48;98955.00;;;22.09;85.24
6387;BME280;3226;42.162;24.756;2022-08-21T10:11:17;98947.97;;;22.15;84.27
6387;BME280;3226;42.162;24.756;2022-08-21T10:13:57;98955.97;;;22.15;85.98
6387;BME280;3226;42.162;24.756;2022-08-21T10:16:39;98954.22;;;22.27;85.98
6387;BME280;3226;42.162;24.756;2022-08-21T10:19:21;98955.19;;;22.14;86.44
6387;BME280;3226;42.162;24.756;2022-08-21T10:21:59;98951.25;;;22.17;86.35
6387;BME280;3226;42.162;24.756;2022-08-21T10:24:31;98954.72;;;22.17;85.90
6387;BME280;3226;42.162;24.756;2022-08-21T10:27:09;98949.25;;;22.31;85.68
6387;BME280;3226;42.162;24.756;2022-08-21T10:29:47;98944.53;;;22.33;85.09
6387;BME280;3226;42.162;24.756;2022-08-21T10:32:27;98935.31;;;21.85;86.25
6387;BME280;3226;42.162;24.756;2022-08-21T10:35:04;98948.34;;;21.74;87.42
6387;BME280;3226;42.162;24.756;2022-08-21T10:37:43;98950.84;;;21.62;89.23
6387;BME280;3226;42.162;24.756;2022-08-21T10:40:22;98951.19;;;21.73;89.25
6387;BME280;3226;42.162;24.756;2022-08-21T10:43:04;98953.09;;;21.91;88.24
6387;BME280;3226;42.162;24.756;2022-08-21T10:45:45;98952.06;;;21.66;88.12
6387;BME280;3226;42.162;24.756;2022-08-21T10:48:25;98953.06;;;21.98;87.42
6387;BME280;3226;42.162;24.756;2022-08-21T10:51:01;98957.91;;;21.82;89.78
6387;BME280;3226;42.162;24.756;2022-08-21T10:53:47;98960.19;;;21.78;89.58
6387;BME280;3226;42.162;24.756;2022-08-21T10:56:21;98941.38;;;21.73;88.57
6387;BME280;3226;42.162;24.756;2022-08-21T10:59:04;98958.44;;;21.91;88.63
6387;BME280;3226;42.162;24.756;2022-08-21T11:01:44;98952.31;;;21.90;89.42
6387;BME280;3226;42.162;24.756;2022-08-21T11:04:20;98953.81;;;22.05;89.58
6387;BME280;3226;42.162;24.756;2022-08-21T11:07:02;98963.81;;;22.09;89.28
6387;BME280;3226;42.162;24.756;2022-08-21T11:09:45;98960.22;;;21.72;91.61
6387;BME280;3226;42.162;24.756;2022-08-21T11:12:22;98955.72;;;21.72;91.98
6387;BME280;3226;42.162;24.756;2022-08-21T11:14:58;98959.44;;;21.71;92.28
6387;BME280;3226;42.162;24.756;2022-08-21T11:17:33;98959.44;;;21.71;90.44
6387;BME280;3226;42.162;24.756;2022-08-21T11:20:08;98948.47;;;21.54;91.12
6387;BME280;3226;42.162;24.756;2022-08-21T11:22:41;98947.28;;;21.43;92.55
6387;BME280;3226;42.162;24.756;2022-08-21T11:25:17;98943.72;;;21.24;92.00
6387;BME280;3226;42.162;24.756;2022-08-21T11:27:52;98932.94;;;21.44;91.82
6387;BME280;3226;42.162;24.756;2022-08-21T11:30:23;98948.19;;;21.69;91.10
6387;BME280;3226;42.162;24.756;2022-08-21T11:33:08;98942.25;;;21.60;89.55
6387;BME280;3226;42.162;24.756;2022-08-21T11:35:47;98938.50;;;21.75;89.78
6387;BME280;3226;42.162;24.756;2022-08-21T11:38:26;98939.25;;;22.07;88.33
6387;BME280;3226;42.162;24.756;2022-08-21T11:41:09;98934.28;;;22.11;87.76
6387;BME280;3226;42.162;24.756;2022-08-21T11:43:41;98937.00;;;22.04;86.59
6387;BME280;3226;42.162;24.756;2022-08-21T11:46:17;98931.09;;;22.21;85.67
6387;BME280;3226;42.162;24.756;2022-08-21T11:48:59;98934.75;;;22.27;85.85
6387;BME280;3226;42.162;24.756;2022-08-21T11:51:34;98927.41;;;22.41;85.40
6387;BME280;3226;42.162;24.756;2022-08-21T11:54:11;98927.38;;;22.47;83.85
6387;BME280;3226;42.162;24.756;2022-08-21T11:56:47;98926.34;;;22.48;84.61
6387;BME280;3226;42.162;24.756;2022-08-21T11:59:22;98926.69;;;22.52;84.65
6387;BME280;3226;42.162;24.756;2022-08-21T12:01:52;98921.63;;;22.62;83.92
6387;BME280;3226;42.162;24.756;2022-08-21T12:04:26;98926.56;;;22.65;82.68
6387;BME280;3226;42.162;24.756;2022-08-21T12:06:56;98911.41;;;22.59;83.11
6387;BME280;3226;42.162;24.756;2022-08-21T12:09:38;98922.69;;;22.61;83.60
6387;BME280;3226;42.162;24.756;2022-08-21T12:12:11;98913.69;;;22.37;83.39
6387;BME280;3226;42.162;24.756;2022-08-21T12:14:42;98916.03;;;22.08;84.68
6387;BME280;3226;42.162;24.756;2022-08-21T12:17:18;98910.13;;;22.06;85.18
6387;BME280;3226;42.162;24.756;2022-08-21T12:19:57;98906.44;;;22.26;85.14
6387;BME280;3226;42.162;24.756;2022-08-21T12:22:38;98904.91;;;22.36;84.67
6387;BME280;3226;42.162;24.756;2022-08-21T12:25:10;98902.59;;;22.40;84.95
6387;BME280;3226;42.162;24.756;2022-08-21T12:27:45;98901.09;;;22.44;85.34
6387;BME280;3226;42.162;24.756;2022-08-21T12:30:22;98893.53;;;22.41;86.51
6387;BME280;3226;42.162;24.756;2022-08-21T12:32:58;98893.75;;;22.46;86.37
6387;BME280;3226;42.162;24.756;2022-08-21T12:35:31;98896.41;;;22.46;85.85
6387;BME280;3226;42.162;24.756;2022-08-21T12:38:12;98893.78;;;22.39;86.30
6387;BME280;3226;42.162;24.756;2022-08-21T12:40:47;98893.91;;;22.45;85.19
6387;BME280;3226;42.162;24.756;2022-08-21T12:43:24;98883.09;;;22.58;84.92
6387;BME280;3226;42.162;24.756;2022-08-21T12:45:53;98873.72;;;22.56;84.01
6387;BME280;3226;42.162;24.756;2022-08-21T12:48:26;98885.69;;;22.65;83.23
6387;BME280;3226;42.162;24.756;2022-08-21T12:50:58;98871.44;;;22.71;83.55
6387;BME280;3226;42.162;24.756;2022-08-21T12:53:41;98872.50;;;22.70;83.47
6387;BME280;3226;42.162;24.756;2022-08-21T12:56:14;98876.72;;;22.78;82.52
6387;BME280;3226;42.162;24.756;2022-08-21T12:58:46;98864.94;;;22.67;83.80
6387;BME280;3226;42.162;24.756;2022-08-21T13:01:20;98852.59;;;22.54;83.25
6387;BME280;3226;42.162;24.756;2022-08-21T13:03:54;98863.50;;;22.52;82.66
6387;BME280;3226;42.162;24.756;2022-08-21T13:06:36;98862.66;;;22.52;84.01
6387;BME280;3226;42.162;24.756;2022-08-21T13:09:08;98867.59;;;22.86;82.96
6387;BME280;3226;42.162;24.756;2022-08-21T13:11:39;98866.94;;;23.02;81.20
6387;BME280;3226;42.162;24.756;2022-08-21T13:14:15;98863.09;;;22.98;81.26
6387;BME280;3226;42.162;24.756;2022-08-21T13:16:45;98875.53;;;23.04;80.75
6387;BME280;3226;42.162;24.756;2022-08-21T13:19:17;98861.84;;;23.13;80.94
6387;BME280;3226;42.162;24.756;2022-08-21T13:21:50;98870.03;;;23.30;81.18
6387;BME280;3226;42.162;24.756;2022-08-21T13:24:22;98872.69;;;23.30;80.47
6387;BME280;3226;42.162;24.756;2022-08-21T13:27:19;98869.97;;;23.06;80.73
6387;BME280;3226;42.162;24.756;2022-08-21T13:30:00;98857.97;;;22.96;80.92
6387;BME280;3226;42.162;24.756;2022-08-21T13:32:30;98861.13;;;23.05;81.30